Time;durP1;ratioP1;P1;durP2;ratioP2;P2;SDS_P1;SDS_P2;PMS_P1;PMS_P2;Temp;Humidity;BMP_temperature;BMP_pressure;BME280_temperature;BME280_humidity;BME280_pressure;Samples;Min_cycle;Max_cycle;Signal;HPM_P1;HPM_P2
2021/12/24 00:01:28;;;;;;;152.25;53.78;;;;;;;5.91;100.00;100521.34;5090640;28;20032;-92
2021/12/24 00:03:53;;;;;;;157.50;56.28;;;;;;;5.91;100.00;100522.22;5091600;28;20032;-90
2021/12/24 00:06:19;;;;;;;149.82;55.10;;;;;;;5.94;100.00;100522.22;5091265;28;20107;-91
2021/12/24 00:08:46;;;;;;;155.35;51.40;;;;;;;5.96;100.00;100519.63;5095336;28;20124;-91
2021/12/24 00:11:12;;;;;;;141.00;51.47;;;;;;;5.94;100.00;100511.00;5091292;28;20023;-91
2021/12/24 00:13:41;;;;;;;144.45;50.63;;;;;;;5.92;100.00;100511.00;5092504;28;20016;-91
2021/12/24 00:16:10;;;;;;;136.40;51.22;;;;;;;5.95;100.00;100507.53;5100222;28;20045;-92
2021/12/24 00:22:16;;;;;;;143.52;50.28;;;;;;;5.97;100.00;100510.97;5094964;28;20043;-93
2021/12/24 00:35:10;;;;;;;;;;;;;;;6.05;100.00;100497.09;5114627;28;20092;-88
2021/12/24 00:37:36;;;;;;;119.93;47.30;;;;;;;6.07;100.00;100500.50;5106035;28;20049;-91
2021/12/24 00:40:12;;;;;;;123.45;46.38;;;;;;;6.09;100.00;100497.94;5094418;28;20063;-90
2021/12/24 00:42:38;;;;;;;130.15;48.72;;;;;;;6.06;100.00;100491.03;5093854;28;20032;-93
2021/12/24 00:45:04;;;;;;;128.93;47.50;;;;;;;6.10;100.00;100497.91;5093320;28;20028;-90
2021/12/24 00:47:30;;;;;;;132.10;49.65;;;;;;;6.12;100.00;100491.88;5093821;28;20031;-91
2021/12/24 00:49:56;;;;;;;134.88;51.00;;;;;;;6.12;100.00;100484.94;5094361;28;20024;-91
2021/12/24 00:52:47;;;;;;;123.50;46.70;;;;;;;6.16;100.00;100481.44;5093859;28;20032;-90
2021/12/24 00:55:13;;;;;;;131.75;50.45;;;;;;;6.21;100.00;100483.97;5094062;28;20038;-91
2021/12/24 00:57:45;;;;;;;130.75;48.22;;;;;;;6.21;100.00;100490.03;5093153;28;20024;-89
2021/12/24 01:00:16;;;;;;;131.63;48.50;;;;;;;6.25;100.00;100481.34;5112832;28;20024;-92
2021/12/24 01:02:43;;;;;;;136.02;50.80;;;;;;;6.27;100.00;100497.72;5113032;28;20020;-91
2021/12/24 01:05:09;;;;;;;133.93;50.75;;;;;;;6.28;100.00;100480.47;5112513;28;20039;-92
2021/12/24 01:07:35;;;;;;;137.48;51.13;;;;;;;6.24;100.00;100478.75;5112496;28;20079;-91
2021/12/24 01:10:00;;;;;;;144.20;53.85;;;;;;;6.30;100.00;100474.38;5114460;28;20059;-90
2021/12/24 01:12:26;;;;;;;150.13;51.65;;;;;;;6.31;100.00;100486.47;5113099;28;20058;-92
2021/12/24 01:14:51;;;;;;;140.05;52.85;;;;;;;6.33;100.00;100484.69;5112698;28;20080;-91
2021/12/24 01:17:31;;;;;;;156.38;51.45;;;;;;;6.35;100.00;100474.34;5098106;28;20138;-91
2021/12/24 01:20:02;;;;;;;150.90;53.33;;;;;;;6.39;100.00;100481.19;5113399;28;20026;-92
2021/12/24 01:23:10;;;;;;;167.95;56.78;;;;;;;6.36;100.00;100476.03;5098787;28;20483;-91
2021/12/24 01:25:35;;;;;;;163.18;59.05;;;;;;;6.41;100.00;100481.16;5092323;28;20593;-90
2021/12/24 01:38:37;;;;;;;186.10;60.33;;;;;;;6.55;100.00;100474.94;5102068;28;20544;-90
2021/12/24 01:43:28;;;;;;;193.57;63.03;;;;;;;6.63;100.00;100474.81;5092676;28;20024;-89
2021/12/24 01:45:55;;;;;;;205.57;64.25;;;;;;;6.60;100.00;100461.06;5103986;28;20058;-90
2021/12/24 01:48:21;;;;;;;199.90;62.65;;;;;;;6.65;100.00;100467.91;5102947;28;20047;-91
2021/12/24 01:50:49;;;;;;;215.95;65.32;;;;;;;6.66;100.00;100477.38;5093302;28;20475;-92
2021/12/24 01:53:17;;;;;;;232.95;68.22;;;;;;;6.67;100.00;100479.13;5113157;28;20532;-90
2021/12/24 01:55:44;;;;;;;222.68;66.18;;;;;;;6.71;100.00;100475.59;5107745;28;20027;-89
2021/12/24 01:58:10;;;;;;;216.23;67.40;;;;;;;6.72;100.00;100469.53;5112574;28;20024;-92
2021/12/24 02:00:40;;;;;;;226.38;65.28;;;;;;;6.77;100.00;100483.28;5112678;28;20085;-91
2021/12/24 02:03:07;;;;;;;222.70;63.97;;;;;;;6.77;100.00;100472.06;5100330;28;20031;-90
2021/12/24 02:05:34;;;;;;;212.82;64.20;;;;;;;6.77;100.00;100475.53;5093943;28;20067;-89
2021/12/24 02:08:00;;;;;;;212.15;64.45;;;;;;;6.73;100.00;100468.63;5111638;28;20039;-90
2021/12/24 02:10:26;;;;;;;213.20;63.25;;;;;;;6.77;100.00;100472.94;5112396;28;20016;-90
2021/12/24 02:12:53;;;;;;;203.77;60.05;;;;;;;6.77;100.00;100479.84;5113245;28;20143;-89
2021/12/24 02:18:36;;;;;;;201.55;61.88;;;;;;;6.88;100.00;100464.16;5082970;28;20493;-89
2021/12/24 02:29:12;;;;;;;195.35;65.13;;;;;;;6.97;100.00;100469.19;5095295;28;19923;-89
2021/12/24 02:31:37;;;;;;;222.77;65.03;;;;;;;6.95;100.00;100463.16;5092908;28;20028;-90
2021/12/24 02:34:03;;;;;;;205.32;64.47;;;;;;;6.96;100.00;100467.47;5092444;27;20023;-91
2021/12/24 02:36:28;;;;;;;225.85;65.40;;;;;;;6.97;100.00;100470.06;5090435;28;20038;-89
2021/12/24 02:38:54;;;;;;;222.38;68.10;;;;;;;6.96;100.00;100465.72;5092486;28;20134;-91
2021/12/24 02:41:20;;;;;;;219.05;64.00;;;;;;;6.98;100.00;100463.13;5092358;28;20024;-91
2021/12/24 02:43:47;;;;;;;220.50;65.55;;;;;;;6.99;100.00;100457.91;5090986;28;20024;-90
2021/12/24 02:46:23;;;;;;;220.88;66.18;;;;;;;7.01;100.00;100460.50;5092148;28;20028;-91
2021/12/24 02:54:10;;;;;;;254.45;68.75;;;;;;;7.10;100.00;100446.56;5093158;28;20055;-90
2021/12/24 02:56:37;;;;;;;252.38;69.95;;;;;;;7.02;100.00;100433.69;5091536;28;20460;-90
2021/12/24 02:59:06;;;;;;;243.27;70.28;;;;;;;7.04;100.00;100437.13;5102225;28;20032;-92
2021/12/24 03:01:35;;;;;;;261.45;73.20;;;;;;;7.08;100.00;100446.56;5112050;28;20024;-92
2021/12/24 03:04:01;;;;;;;257.35;69.35;;;;;;;7.10;100.00;100455.19;5111728;28;20024;-90
2021/12/24 03:06:29;;;;;;;272.02;69.97;;;;;;;7.08;100.00;100446.56;5110684;28;20378;-90
2021/12/24 03:08:55;;;;;;;239.15;68.82;;;;;;;7.04;100.00;100437.97;5097189;28;20024;-90
2021/12/24 03:11:21;;;;;;;249.90;69.68;;;;;;;7.07;100.00;100442.25;5091508;28;20123;-91
2021/12/24 03:13:48;;;;;;;266.85;72.13;;;;;;;7.11;100.00;100445.66;5091551;28;20069;-90
2021/12/24 03:16:13;;;;;;;245.88;70.05;;;;;;;7.10;100.00;100451.72;5097665;28;20502;-92
2021/12/24 03:18:41;;;;;;;255.13;72.28;;;;;;;7.12;100.00;100442.19;5110281;28;20024;-89
2021/12/24 03:21:13;;;;;;;275.25;71.40;;;;;;;7.13;100.00;100442.16;5109788;28;20035;-90
2021/12/24 03:23:42;;;;;;;278.70;71.70;;;;;;;7.18;100.00;100450.72;5112049;28;20015;-90
2021/12/24 03:26:14;;;;;;;287.70;78.95;;;;;;;7.19;100.00;100446.38;5110963;28;20024;-89
2021/12/24 03:28:40;;;;;;;296.88;76.30;;;;;;;7.19;100.00;100446.38;5099057;28;20060;-91
2021/12/24 03:31:06;;;;;;;296.33;75.97;;;;;;;7.20;100.00;100458.47;5091485;28;20464;-90
2021/12/24 03:33:34;;;;;;;296.38;78.22;;;;;;;7.20;100.00;100458.47;5090487;28;20024;-90
2021/12/24 03:36:01;;;;;;;312.73;76.80;;;;;;;7.15;100.00;100453.34;5110818;28;20106;-90
2021/12/24 03:38:28;;;;;;;316.85;79.07;;;;;;;7.19;100.00;100460.22;5101911;28;20471;-90
2021/12/24 03:40:53;;;;;;;303.90;80.38;;;;;;;7.26;100.00;100463.56;5091024;28;20050;-91
2021/12/24 03:43:18;;;;;;;318.95;80.55;;;;;;;7.26;100.00;100459.25;5094496;28;20498;-90
2021/12/24 03:46:19;;;;;;;317.88;79.20;;;;;;;7.28;100.00;100460.06;5111247;28;20531;-91
2021/12/24 03:48:55;;;;;;;306.17;78.30;;;;;;;7.22;100.00;100461.88;5098989;28;20043;-90
2021/12/24 03:51:31;;;;;;;312.30;79.63;;;;;;;7.23;100.00;100461.03;5115932;27;20443;-89
2021/12/24 03:56:41;;;;;;;285.60;77.85;;;;;;;7.29;100.00;100468.69;5115560;28;20073;-92
2021/12/24 03:59:07;;;;;;;276.83;77.38;;;;;;;7.30;100.00;100465.22;5112123;28;20028;-90
2021/12/24 04:01:33;;;;;;;282.23;76.40;;;;;;;7.33;100.00;100461.75;5114709;28;20039;-90
2021/12/24 04:03:59;;;;;;;284.23;73.20;;;;;;;7.30;100.00;100464.38;5107445;28;20028;-90
2021/12/24 04:06:24;;;;;;;289.50;73.32;;;;;;;7.31;100.00;100471.28;5094533;28;20097;-90
2021/12/24 04:08:50;;;;;;;271.27;76.18;;;;;;;7.31;100.00;100460.91;5094564;28;20106;-90
2021/12/24 04:11:16;;;;;;;264.88;73.20;;;;;;;7.29;100.00;100463.50;5095039;28;20103;-89
2021/12/24 04:13:41;;;;;;;247.98;69.32;;;;;;;7.32;100.00;100480.75;5105113;28;20452;-90
2021/12/24 04:16:07;;;;;;;238.32;66.95;;;;;;;7.30;100.00;100467.81;5103421;28;20036;-90
2021/12/24 04:26:28;;;;;;;184.18;56.67;;;;;;;7.24;100.00;100466.19;5107775;28;20154;-90
2021/12/24 04:28:53;;;;;;;179.70;55.70;;;;;;;7.22;100.00;100460.16;5107160;28;20150;-89
2021/12/24 04:31:24;;;;;;;162.43;53.22;;;;;;;7.15;100.00;100442.97;5115004;28;20023;-89
2021/12/24 04:33:50;;;;;;;153.80;48.42;;;;;;;7.15;100.00;100468.06;5114160;28;20032;-90
2021/12/24 05:03:23;;;;;;;98.32;33.25;;;;;;;7.26;100.00;100463.56;5104742;28;20165;-89
2021/12/24 05:05:53;;;;;;;102.80;33.05;;;;;;;7.24;100.00;100462.72;5106417;28;20505;-90
2021/12/24 05:08:24;;;;;;;98.32;33.50;;;;;;;7.22;100.00;100465.34;5104472;28;20020;-91
2021/12/24 05:10:51;;;;;;;83.53;30.98;;;;;;;7.22;100.00;100465.34;5093207;28;20031;-91
2021/12/24 05:13:18;;;;;;;93.38;32.65;;;;;;;7.19;100.00;100462.81;5093844;28;20098;-91
2021/12/24 05:15:47;;;;;;;97.20;31.48;;;;;;;7.19;100.00;100460.22;5093230;28;20494;-90
2021/12/24 05:18:31;;;;;;;87.10;29.00;;;;;;;7.18;100.00;100465.41;5107379;28;20107;-89
2021/12/24 05:23:41;;;;;;;78.80;28.88;;;;;;;7.16;100.00;100465.47;5095842;28;20344;-89
2021/12/24 05:26:06;;;;;;;82.72;30.33;;;;;;;7.20;100.00;100474.88;5093059;28;20028;-89
2021/12/24 05:28:32;;;;;;;85.50;27.20;;;;;;;7.19;100.00;100477.50;5110958;28;20059;-90
2021/12/24 05:30:57;;;;;;;73.88;26.67;;;;;;;7.15;100.00;100466.31;5114052;28;20440;-90
2021/12/24 05:33:22;;;;;;;75.93;26.25;;;;;;;7.14;100.00;100479.31;5101662;28;20028;-90
2021/12/24 05:35:48;;;;;;;71.25;26.05;;;;;;;7.13;100.00;100483.66;5092858;28;20031;-89
2021/12/24 05:38:15;;;;;;;69.15;23.75;;;;;;;7.15;100.00;100487.06;5106784;28;20625;-90
2021/12/24 05:40:41;;;;;;;61.75;24.13;;;;;;;7.15;100.00;100478.44;5112448;27;20470;-90
2021/12/24 05:43:07;;;;;;;64.55;23.48;;;;;;;7.15;100.00;100494.84;5099207;28;20531;-90
2021/12/24 05:45:33;;;;;;;54.28;22.27;;;;;;;7.13;100.00;100481.06;5103296;28;20161;-88
2021/12/24 05:47:58;;;;;;;67.00;22.50;;;;;;;7.14;100.00;100495.72;5104384;28;20064;-90
2021/12/24 05:50:24;;;;;;;62.75;22.02;;;;;;;7.14;100.00;100497.47;5113372;28;20069;-89
2021/12/24 05:52:49;;;;;;;58.28;22.00;;;;;;;7.10;100.00;100495.81;5113349;28;20019;-90
2021/12/24 05:55:15;;;;;;;58.72;21.65;;;;;;;7.10;100.00;100486.28;5112379;28;20051;-89
2021/12/24 05:57:40;;;;;;;59.45;20.55;;;;;;;7.14;100.00;100489.69;5104982;28;20036;-90
2021/12/24 06:00:08;;;;;;;55.97;18.27;;;;;;;7.13;100.00;100488.84;5102387;28;20066;-90
2021/12/24 06:02:34;;;;;;;55.72;19.95;;;;;;;7.13;100.00;100493.13;5111252;28;20019;-88
2021/12/24 06:04:59;;;;;;;57.40;19.52;;;;;;;7.08;100.00;100488.03;5113238;28;20046;-89
2021/12/24 06:07:34;;;;;;;46.97;18.08;;;;;;;7.08;100.00;100494.97;5104843;28;20070;-91
2021/12/24 06:09:59;;;;;;;51.17;18.38;;;;;;;7.11;100.00;100500.09;5092821;28;20028;-90
2021/12/24 06:12:25;;;;;;;51.05;19.13;;;;;;;7.07;100.00;100488.91;5094919;28;20027;-90
2021/12/24 06:14:54;;;;;;;55.70;19.50;;;;;;;7.11;100.00;100502.69;5112627;28;20050;-91
2021/12/24 06:17:22;;;;;;;51.20;18.95;;;;;;;7.06;100.00;100488.94;5105729;27;20024;-91
2021/12/24 06:19:47;;;;;;;54.15;20.45;;;;;;;7.09;100.00;100492.31;5094361;28;20031;-91
2021/12/24 06:22:13;;;;;;;47.22;17.75;;;;;;;7.07;100.00;100493.25;5112330;28;20023;-91
2021/12/24 06:24:38;;;;;;;52.63;18.88;;;;;;;7.07;100.00;100504.47;5112655;28;20035;-91
2021/12/24 06:27:04;;;;;;;53.22;17.33;;;;;;;7.06;100.00;100500.16;5112058;28;20030;-91
2021/12/24 06:29:30;;;;;;;45.58;17.85;;;;;;;7.02;100.00;100493.31;5111682;28;20433;-91
2021/12/24 06:31:55;;;;;;;48.28;17.20;;;;;;;7.03;100.00;100490.69;5111523;27;20027;-90
2021/12/24 06:34:20;;;;;;;47.30;17.25;;;;;;;7.06;100.00;100482.00;5094566;28;20448;-88
2021/12/24 06:36:48;;;;;;;52.85;17.52;;;;;;;7.08;100.00;100488.03;5095050;28;20034;-89
2021/12/24 06:39:15;;;;;;;51.40;17.30;;;;;;;7.07;100.00;100491.50;5112968;28;20031;-89
2021/12/24 06:41:41;;;;;;;41.90;16.13;;;;;;;7.06;100.00;100494.97;5112496;28;20031;-90
2021/12/24 06:44:10;;;;;;;41.75;17.10;;;;;;;7.02;100.00;100486.38;5109839;28;20022;-89
2021/12/24 06:46:35;;;;;;;45.83;17.05;;;;;;;7.03;100.00;100487.25;5106935;28;20032;-90
2021/12/24 06:49:01;;;;;;;41.75;16.65;;;;;;;7.06;100.00;100499.28;5111113;28;20502;-89
2021/12/24 06:51:27;;;;;;;48.92;17.42;;;;;;;7.03;100.00;100495.88;5110433;28;20073;-91
2021/12/24 06:53:53;;;;;;;44.47;17.67;;;;;;;7.03;100.00;100497.63;5110917;28;20105;-89
2021/12/24 06:56:19;;;;;;;46.60;18.13;;;;;;;7.02;100.00;100495.88;5110727;28;20027;-90
2021/12/24 06:58:45;;;;;;;47.42;17.80;;;;;;;7.03;100.00;100502.81;5111698;28;20390;-90
2021/12/24 07:01:10;;;;;;;47.38;20.15;;;;;;;6.98;100.00;100495.09;5102374;28;20027;-89
2021/12/24 07:03:37;;;;;;;54.58;19.88;;;;;;;7.04;100.00;100504.50;5090725;28;20507;-90
2021/12/24 07:06:03;;;;;;;53.75;20.35;;;;;;;7.02;100.00;100496.75;5111365;28;20031;-90
2021/12/24 07:08:28;;;;;;;54.10;20.83;;;;;;;7.00;100.00;100497.66;5096312;28;20038;-91
2021/12/24 07:10:54;;;;;;;57.38;22.63;;;;;;;7.01;100.00;100489.84;5092088;28;20460;-89
2021/12/24 07:13:19;;;;;;;48.60;21.50;;;;;;;7.00;100.00;100484.72;5092117;28;20031;-90
2021/12/24 07:15:44;;;;;;;58.15;20.48;;;;;;;7.04;100.00;100494.16;5097628;28;20093;-91
2021/12/24 07:18:10;;;;;;;56.95;21.23;;;;;;;7.03;100.00;100492.44;5108381;28;20020;-89
2021/12/24 07:20:35;;;;;;;55.63;20.33;;;;;;;7.01;100.00;100489.00;5111649;28;20027;-89
2021/12/24 07:23:00;;;;;;;57.60;21.23;;;;;;;7.01;100.00;100483.81;5113356;28;20043;-89
2021/12/24 07:25:26;;;;;;;63.20;22.85;;;;;;;7.00;100.00;100492.47;5112225;28;20024;-88
2021/12/24 07:27:51;;;;;;;62.92;22.50;;;;;;;6.97;100.00;100489.94;5102517;28;20424;-89
2021/12/24 07:30:18;;;;;;;58.58;24.05;;;;;;;7.01;100.00;100496.78;5095795;28;20437;-91
2021/12/24 07:32:44;;;;;;;67.03;24.45;;;;;;;6.99;100.00;100499.38;5103739;28;20032;-90
2021/12/24 07:35:10;;;;;;;60.90;25.15;;;;;;;7.01;100.00;100501.97;5096137;28;20498;-89
2021/12/24 07:37:35;;;;;;;59.13;23.13;;;;;;;7.00;100.00;100492.47;5104451;28;20049;-92
2021/12/24 07:40:03;;;;;;;65.30;23.60;;;;;;;6.99;100.00;100486.41;5113689;28;20019;-89
2021/12/24 07:42:28;;;;;;;56.10;24.27;;;;;;;6.97;100.00;100493.38;5095318;28;20549;-90
2021/12/24 07:44:54;;;;;;;65.88;24.23;;;;;;;6.96;100.00;100504.59;5096921;28;20024;-89
2021/12/24 07:47:28;;;;;;;64.10;24.55;;;;;;;6.98;100.00;100512.38;5109875;27;20415;-89
2021/12/24 07:50:03;;;;;;;65.55;23.42;;;;;;;6.99;100.00;100521.84;5107751;28;20102;-88
2021/12/24 07:52:30;;;;;;;64.03;25.25;;;;;;;6.98;100.00;100523.59;5109506;28;20016;-89
2021/12/24 07:54:55;;;;;;;60.45;23.25;;;;;;;6.98;100.00;100525.31;5105629;28;20058;-90
2021/12/24 07:57:21;;;;;;;61.17;23.25;;;;;;;6.97;100.00;100514.13;5107987;28;20031;-88
2021/12/24 07:59:47;;;;;;;73.55;24.38;;;;;;;6.99;100.00;100504.56;5098826;27;20468;-91
2021/12/24 08:02:15;;;;;;;63.25;23.13;;;;;;;6.97;100.00;100505.50;5110408;28;20027;-88
2021/12/24 08:04:43;;;;;;;60.67;23.08;;;;;;;6.93;100.00;100499.50;5112216;28;20020;-89
2021/12/24 08:07:09;;;;;;;58.50;21.80;;;;;;;6.83;100.00;100484.06;5108887;28;20069;-88
2021/12/24 08:09:37;;;;;;;59.30;22.20;;;;;;;6.79;100.00;100493.63;5094764;28;20028;-88
2021/12/24 08:12:05;;;;;;;60.92;21.13;;;;;;;6.73;100.00;100494.56;5113015;28;20031;-88
2021/12/24 08:14:30;;;;;;;57.95;22.02;;;;;;;6.66;100.00;100497.25;5113016;28;20476;-87
2021/12/24 08:16:55;;;;;;;52.67;22.33;;;;;;;6.60;100.00;100493.00;5110292;27;20059;-85
2021/12/24 08:19:20;;;;;;;49.95;20.02;;;;;;;6.55;100.00;100500.84;5111625;28;20028;-87
2021/12/24 08:21:46;;;;;;;59.55;21.13;;;;;;;6.52;100.00;100493.09;5113925;28;20028;-86
2021/12/24 08:24:12;;;;;;;63.25;22.02;;;;;;;6.47;100.00;100494.03;5114394;28;20019;-87
2021/12/24 08:26:37;;;;;;;64.55;22.50;;;;;;;6.48;100.00;100501.78;5106421;28;20039;-87
2021/12/24 08:29:03;;;;;;;63.75;21.85;;;;;;;6.53;100.00;100506.91;5113297;28;20059;-88
2021/12/24 08:31:29;;;;;;;68.72;23.35;;;;;;;6.58;100.00;100510.31;5105464;28;20031;-88
2021/12/24 08:33:54;;;;;;;76.60;24.58;;;;;;;6.65;100.00;100509.34;5104184;28;20024;-88
2021/12/24 08:36:19;;;;;;;65.18;22.73;;;;;;;6.70;100.00;100504.97;5104021;28;20031;-90
2021/12/24 08:38:45;;;;;;;74.43;24.63;;;;;;;6.76;100.00;100497.09;5101688;28;20067;-89
2021/12/24 08:41:10;;;;;;;73.85;23.65;;;;;;;6.82;100.00;100492.72;5097104;28;20475;-91
2021/12/24 08:43:36;;;;;;;71.72;25.55;;;;;;;6.83;100.00;100484.06;5099345;28;20020;-88
2021/12/24 08:46:01;;;;;;;74.30;26.45;;;;;;;6.88;100.00;100490.06;5105845;28;20142;-89
2021/12/24 08:48:26;;;;;;;78.22;25.92;;;;;;;6.89;100.00;100484.84;5113183;28;20028;-88
2021/12/24 08:50:52;;;;;;;79.10;27.23;;;;;;;6.91;100.00;100477.06;5105492;28;20024;-89
2021/12/24 08:53:17;;;;;;;73.72;28.05;;;;;;;6.99;100.00;100488.16;5103479;28;20034;-93
2021/12/24 08:55:43;;;;;;;78.00;29.33;;;;;;;7.03;100.00;100489.84;5107888;28;20548;-95
2021/12/24 08:58:08;;;;;;;74.60;27.25;;;;;;;7.06;100.00;100488.94;5114126;28;20040;-91
2021/12/24 09:00:35;;;;;;;75.45;28.08;;;;;;;7.13;100.00;100482.75;5099017;28;20425;-91
2021/12/24 09:03:02;;;;;;;76.53;27.98;;;;;;;7.20;100.00;100484.41;5104907;28;20024;-90
2021/12/24 09:05:28;;;;;;;78.97;26.95;;;;;;;7.23;100.00;100484.38;5110642;28;20031;-92
2021/12/24 09:07:53;;;;;;;71.65;27.10;;;;;;;7.27;100.00;100481.69;5113318;28;20031;-92
2021/12/24 09:10:18;;;;;;;78.40;28.75;;;;;;;7.30;100.00;100473.00;5112681;28;20023;-92
2021/12/24 09:12:44;;;;;;;70.47;28.30;;;;;;;7.36;100.00;100477.25;5112720;28;20023;-92
2021/12/24 09:15:14;;;;;;;65.60;25.23;;;;;;;7.39;100.00;100480.66;5099236;28;20040;-92
2021/12/24 09:17:45;;;;;;;69.32;25.92;;;;;;;7.38;100.00;100478.06;5091768;28;20020;-93
2021/12/24 09:20:15;;;;;;;70.38;27.42;;;;;;;7.44;100.00;100470.19;5092866;28;20052;-91
2021/12/24 09:22:41;;;;;;;67.85;25.20;;;;;;;7.47;100.00;100472.72;5092113;28;20076;-93
2021/12/24 09:25:08;;;;;;;63.35;25.77;;;;;;;7.43;100.00;100473.69;5091795;28;20056;-92
2021/12/24 09:27:33;;;;;;;55.90;24.15;;;;;;;7.41;100.00;100472.84;5091920;28;20035;-93
2021/12/24 09:29:59;;;;;;;64.82;24.05;;;;;;;7.38;100.00;100472.88;5071366;28;1035550;-90
2021/12/24 09:32:28;;;;;;;63.63;24.50;;;;;;;7.37;100.00;100477.22;5111579;27;20035;-95
2021/12/24 09:34:53;;;;;;;63.88;24.70;;;;;;;7.39;100.00;100479.75;5114713;27;20108;-92
2021/12/24 09:37:19;;;;;;;68.72;25.42;;;;;;;7.31;100.00;100474.72;5112760;28;20027;-92
2021/12/24 09:39:44;;;;;;;67.78;25.10;;;;;;;7.36;100.00;100477.25;5092121;28;20057;-91
2021/12/24 09:42:09;;;;;;;57.58;24.75;;;;;;;7.40;100.00;100479.75;5106767;28;20043;-90
2021/12/24 09:44:35;;;;;;;63.67;25.75;;;;;;;7.39;100.00;100485.84;5112215;28;20031;-94
2021/12/24 09:47:00;;;;;;;69.50;26.33;;;;;;;7.37;100.00;100478.97;5104722;28;20535;-88
2021/12/24 09:49:26;;;;;;;69.38;26.98;;;;;;;7.42;100.00;100479.72;5114827;28;20103;-90
2021/12/24 09:51:52;;;;;;;67.38;26.58;;;;;;;7.35;100.00;100470.34;5114918;28;20034;-94
2021/12/24 09:54:23;;;;;;;66.03;28.40;;;;;;;7.36;100.00;100472.91;5112993;28;20459;-91
2021/12/24 09:56:51;;;;;;;64.25;27.33;;;;;;;7.37;100.00;100473.78;5113960;28;20368;-93
2021/12/24 09:59:16;;;;;;;66.03;27.50;;;;;;;7.40;100.00;100481.50;5112207;28;20475;-93
2021/12/24 10:01:49;;;;;;;62.65;27.35;;;;;;;7.37;100.00;100469.44;5113541;28;20027;-92
2021/12/24 10:04:18;;;;;;;70.15;27.02;;;;;;;7.41;100.00;100472.84;5099711;28;20036;-91
2021/12/24 10:06:56;;;;;;;80.82;30.80;;;;;;;7.41;100.00;100472.84;5111687;28;20150;-90
2021/12/24 10:09:29;;;;;;;80.45;30.92;;;;;;;7.38;100.00;100472.88;5113539;27;20118;-90
2021/12/24 10:12:00;;;;;;;90.97;32.40;;;;;;;7.38;100.00;100475.47;5113413;28;20024;-92
2021/12/24 10:14:33;;;;;;;73.25;32.17;;;;;;;7.34;100.00;100468.63;5111205;28;20035;-91
2021/12/24 10:17:00;;;;;;;76.28;30.60;;;;;;;7.39;100.00;100472.88;5113337;28;20039;-90
2021/12/24 10:19:25;;;;;;;72.95;30.67;;;;;;;7.41;100.00;100467.66;5112589;28;20042;-92
2021/12/24 10:22:00;;;;;;;75.28;30.80;;;;;;;7.47;100.00;100475.31;5109115;28;19999;-91
2021/12/24 10:24:26;;;;;;;78.38;33.05;;;;;;;7.48;100.00;100474.44;5106195;28;20375;-88
2021/12/24 10:26:54;;;;;;;73.47;31.15;;;;;;;7.51;100.00;100475.25;5106449;28;20028;-89
2021/12/24 10:29:41;;;;;;;78.60;32.47;;;;;;;7.51;100.00;100470.06;5095309;28;20089;-91
2021/12/24 10:32:18;;;;;;;67.22;31.38;;;;;;;7.54;100.00;100476.94;5102870;28;20024;-91
2021/12/24 10:34:44;;;;;;;86.30;33.22;;;;;;;7.56;100.00;100472.59;5105033;28;20043;-89
2021/12/24 10:37:24;;;;;;;78.32;33.85;;;;;;;7.54;100.00;100463.09;5102475;27;20678;-88
2021/12/24 10:40:00;;;;;;;76.40;33.25;;;;;;;7.55;100.00;100450.09;5106616;27;20493;-90
2021/12/24 10:42:37;;;;;;;83.15;36.28;;;;;;;7.59;100.00;100456.13;5104116;28;20111;-87
2021/12/24 10:45:05;;;;;;;86.40;34.50;;;;;;;7.60;100.00;100461.25;5099410;28;20033;-90
2021/12/24 10:47:38;;;;;;;77.28;35.78;;;;;;;7.67;100.00;100454.22;5111517;28;20028;-90
2021/12/24 10:50:15;;;;;;;78.88;34.80;;;;;;;7.74;100.00;100456.69;5104860;28;20028;-89
2021/12/24 10:53:01;;;;;;;81.72;36.55;;;;;;;7.84;100.00;100459.13;5104446;28;20383;-88
2021/12/24 10:55:37;;;;;;;88.15;37.20;;;;;;;7.84;100.00;100454.78;5097039;28;20070;-89
2021/12/24 10:58:05;;;;;;;88.88;38.85;;;;;;;7.85;100.00;100447.88;5102633;28;20027;-89
2021/12/24 11:00:38;;;;;;;93.53;37.63;;;;;;;7.79;100.00;100438.44;5099395;28;20055;-89
2021/12/24 11:03:07;;;;;;;93.03;38.60;;;;;;;7.85;100.00;100440.09;5110074;28;20024;-87
2021/12/24 11:05:35;;;;;;;91.20;39.40;;;;;;;7.87;100.00;100446.94;5096148;28;20036;-88
2021/12/24 11:08:03;;;;;;;95.95;40.63;;;;;;;7.88;100.00;100443.47;5093845;28;20028;-88
2021/12/24 11:10:31;;;;;;;100.80;40.92;;;;;;;7.88;100.00;100445.19;5110610;28;20023;-91
2021/12/24 11:13:09;;;;;;;97.45;40.70;;;;;;;7.87;100.00;100446.09;5104374;28;20027;-90
2021/12/24 11:15:50;;;;;;;97.57;41.33;;;;;;;7.85;100.00;100443.53;5111443;28;20027;-90
2021/12/24 11:18:21;;;;;;;93.75;40.85;;;;;;;7.92;100.00;100449.47;5111010;28;20096;-90
2021/12/24 11:21:17;;;;;;;91.78;42.30;;;;;;;7.99;100.00;100435.47;5114322;28;20023;-90
2021/12/24 11:23:43;;;;;;;98.50;40.38;;;;;;;8.10;100.00;100435.25;5104297;28;20035;-93
2021/12/24 11:26:13;;;;;;;87.90;39.42;;;;;;;8.11;100.00;100435.25;5096937;28;20035;-90
2021/12/24 11:28:39;;;;;;;94.03;40.70;;;;;;;8.06;100.00;100436.22;5108484;28;20131;-92
2021/12/24 11:31:09;;;;;;;95.97;40.20;;;;;;;8.02;100.00;100440.59;5098463;28;20387;-92
2021/12/24 11:33:36;;;;;;;84.60;39.78;;;;;;;7.96;100.00;100440.72;5103830;28;20059;-90
2021/12/24 11:36:07;;;;;;;84.97;37.75;;;;;;;7.95;100.00;100449.41;5102492;28;20031;-90
2021/12/24 11:38:36;;;;;;;86.07;38.42;;;;;;;7.91;100.00;100453.81;5105743;28;20027;-90
2021/12/24 11:41:03;;;;;;;78.75;37.95;;;;;;;7.91;100.00;100439.94;5104037;28;20032;-89
2021/12/24 11:43:33;;;;;;;80.18;37.33;;;;;;;7.92;100.00;100449.47;5091360;28;20064;-86
2021/12/24 11:46:01;;;;;;;81.70;37.40;;;;;;;7.89;100.00;100450.38;5102556;28;20038;-87
2021/12/24 11:48:31;;;;;;;79.35;36.33;;;;;;;7.84;100.00;100452.19;5111271;28;20089;-88
2021/12/24 11:50:58;;;;;;;80.88;37.03;;;;;;;7.83;100.00;100450.47;5098142;28;20105;-87
2021/12/24 11:53:25;;;;;;;77.93;37.42;;;;;;;7.81;100.00;100453.97;5100276;28;20110;-87
2021/12/24 11:55:50;;;;;;;82.68;37.10;;;;;;;7.73;100.00;100442.00;5099045;28;20036;-87
2021/12/24 11:58:21;;;;;;;80.90;36.80;;;;;;;7.77;100.00;100453.19;5111387;28;20057;-86
2021/12/24 12:00:50;;;;;;;78.85;38.03;;;;;;;7.73;100.00;100449.78;5105984;28;20024;-87
2021/12/24 12:03:53;;;;;;;86.47;37.75;;;;;;;7.71;100.00;100450.69;5093745;28;20024;-87
2021/12/24 12:06:21;;;;;;;87.25;36.95;;;;;;;7.68;100.00;100445.56;5090226;28;20039;-87
2021/12/24 12:08:49;;;;;;;85.95;36.95;;;;;;;7.67;100.00;100439.50;5098166;28;20369;-86
2021/12/24 12:11:25;;;;;;;83.15;36.60;;;;;;;7.68;100.00;100443.84;5100826;28;20425;-86
2021/12/24 12:13:59;;;;;;;88.63;39.13;;;;;;;7.68;100.00;100445.56;5114928;28;20031;-86
2021/12/24 12:16:29;;;;;;;92.07;38.17;;;;;;;7.68;100.00;100440.38;5113541;28;20040;-87
2021/12/24 12:19:31;;;;;;;85.22;37.38;;;;;;;7.68;100.00;100433.47;5113169;28;20020;-87
2021/12/24 12:22:14;;;;;;;87.25;39.05;;;;;;;7.67;100.00;100439.50;5109145;28;20068;-86
2021/12/24 12:25:01;;;;;;;96.03;41.65;;;;;;;7.67;100.00;100436.91;5114770;28;20024;-86
2021/12/24 12:27:30;;;;;;;92.00;38.05;;;;;;;7.65;100.00;100445.59;5093719;28;20027;-87
2021/12/24 12:29:56;;;;;;;81.57;36.30;;;;;;;7.62;100.00;100433.56;5095448;28;20044;-87
2021/12/24 12:32:21;;;;;;;86.30;36.88;;;;;;;7.63;100.00;100443.06;5104979;28;20034;-90
2021/12/24 12:34:48;;;;;;;86.70;36.97;;;;;;;7.64;100.00;100430.94;5106329;28;20043;-87
2021/12/24 12:37:18;;;;;;;87.38;37.33;;;;;;;7.66;100.00;100436.97;5109021;28;20305;-88